sensor_id;sensor_type;location;lat;lon;timestamp;P1;durP1;ratioP1;P2;durP2;ratioP2
74415;SDS011;62850;42.428;25.618;2024-01-11T00:00:32;24.65;;;6.90;;
74415;SDS011;62850;42.428;25.618;2024-01-11T00:02:58;26.73;;;7.30;;
74415;SDS011;62850;42.428;25.618;2024-01-11T00:05:24;10.30;;;3.60;;
74415;SDS011;62850;42.428;25.618;2024-01-11T00:07:49;9.57;;;3.33;;
74415;SDS011;62850;42.428;25.618;2024-01-11T00:10:16;7.85;;;3.28;;
74415;SDS011;62850;42.428;25.618;2024-01-11T00:12:41;19.50;;;6.70;;
74415;SDS011;62850;42.428;25.618;2024-01-11T00:15:08;12.32;;;4.85;;
74415;SDS011;62850;42.428;25.618;2024-01-11T00:17:35;13.25;;;4.82;;
74415;SDS011;62850;42.428;25.618;2024-01-11T00:20:02;14.63;;;5.80;;
74415;SDS011;62850;42.428;25.618;2024-01-11T00:22:28;11.70;;;4.70;;
74415;SDS011;62850;42.428;25.618;2024-01-11T00:24:54;18.05;;;8.23;;
74415;SDS011;62850;42.428;25.618;2024-01-11T00:27:20;8.45;;;3.95;;
74415;SDS011;62850;42.428;25.618;2024-01-11T00:29:46;4.75;;;1.95;;
74415;SDS011;62850;42.428;25.618;2024-01-11T00:32:12;6.28;;;2.67;;
74415;SDS011;62850;42.428;25.618;2024-01-11T00:34:38;5.60;;;2.50;;
74415;SDS011;62850;42.428;25.618;2024-01-11T00:37:04;6.22;;;2.22;;
74415;SDS011;62850;42.428;25.618;2024-01-11T00:39:30;5.35;;;2.45;;
74415;SDS011;62850;42.428;25.618;2024-01-11T00:41:57;6.00;;;2.70;;
74415;SDS011;62850;42.428;25.618;2024-01-11T00:44:22;9.75;;;2.83;;
74415;SDS011;62850;42.428;25.618;2024-01-11T00:46:48;5.80;;;2.90;;
74415;SDS011;62850;42.428;25.618;2024-01-11T00:49:14;9.20;;;2.97;;
74415;SDS011;62850;42.428;25.618;2024-01-11T00:51:40;8.18;;;3.60;;
74415;SDS011;62850;42.428;25.618;2024-01-11T00:54:06;6.05;;;2.83;;
74415;SDS011;62850;42.428;25.618;2024-01-11T00:56:32;7.95;;;3.50;;
74415;SDS011;62850;42.428;25.618;2024-01-11T00:58:58;7.15;;;2.88;;
74415;SDS011;62850;42.428;25.618;2024-01-11T01:01:24;9.00;;;2.85;;
74415;SDS011;62850;42.428;25.618;2024-01-11T01:03:49;7.20;;;2.83;;
74415;SDS011;62850;42.428;25.618;2024-01-11T01:06:15;7.80;;;2.92;;
74415;SDS011;62850;42.428;25.618;2024-01-11T01:08:41;6.97;;;3.08;;
74415;SDS011;62850;42.428;25.618;2024-01-11T01:11:06;5.15;;;2.65;;
74415;SDS011;62850;42.428;25.618;2024-01-11T01:13:32;5.10;;;2.45;;
74415;SDS011;62850;42.428;25.618;2024-01-11T01:15:58;6.32;;;3.05;;
74415;SDS011;62850;42.428;25.618;2024-01-11T01:18:24;6.15;;;2.83;;
74415;SDS011;62850;42.428;25.618;2024-01-11T01:20:50;7.07;;;3.00;;
74415;SDS011;62850;42.428;25.618;2024-01-11T01:23:16;5.30;;;2.97;;
74415;SDS011;62850;42.428;25.618;2024-01-11T01:25:43;5.25;;;2.80;;
74415;SDS011;62850;42.428;25.618;2024-01-11T01:28:08;6.30;;;2.67;;
74415;SDS011;62850;42.428;25.618;2024-01-11T01:30:35;6.45;;;2.95;;
74415;SDS011;62850;42.428;25.618;2024-01-11T01:33:01;11.73;;;3.33;;
74415;SDS011;62850;42.428;25.618;2024-01-11T01:35:27;7.72;;;3.35;;
74415;SDS011;62850;42.428;25.618;2024-01-11T01:37:53;8.52;;;3.70;;
74415;SDS011;62850;42.428;25.618;2024-01-11T01:40:19;6.70;;;3.13;;
74415;SDS011;62850;42.428;25.618;2024-01-11T01:42:45;7.28;;;3.63;;
74415;SDS011;62850;42.428;25.618;2024-01-11T01:45:11;9.88;;;3.63;;
74415;SDS011;62850;42.428;25.618;2024-01-11T01:47:40;8.20;;;4.03;;
74415;SDS011;62850;42.428;25.618;2024-01-11T01:50:07;10.05;;;4.07;;
74415;SDS011;62850;42.428;25.618;2024-01-11T01:52:35;10.18;;;4.25;;
74415;SDS011;62850;42.428;25.618;2024-01-11T01:55:03;9.70;;;5.18;;
74415;SDS011;62850;42.428;25.618;2024-01-11T01:57:30;11.32;;;5.15;;
74415;SDS011;62850;42.428;25.618;2024-01-11T01:59:58;14.45;;;5.88;;
74415;SDS011;62850;42.428;25.618;2024-01-11T02:02:24;11.35;;;5.50;;
74415;SDS011;62850;42.428;25.618;2024-01-11T02:04:50;12.75;;;6.22;;
74415;SDS011;62850;42.428;25.618;2024-01-11T02:07:16;15.25;;;6.35;;
74415;SDS011;62850;42.428;25.618;2024-01-11T02:09:42;14.18;;;6.38;;
74415;SDS011;62850;42.428;25.618;2024-01-11T02:12:09;12.85;;;5.50;;
74415;SDS011;62850;42.428;25.618;2024-01-11T02:14:38;10.13;;;5.63;;
74415;SDS011;62850;42.428;25.618;2024-01-11T02:17:05;12.90;;;6.35;;
74415;SDS011;62850;42.428;25.618;2024-01-11T02:19:31;10.88;;;5.90;;
74415;SDS011;62850;42.428;25.618;2024-01-11T02:22:00;15.45;;;6.18;;
74415;SDS011;62850;42.428;25.618;2024-01-11T02:24:31;12.98;;;6.20;;
74415;SDS011;62850;42.428;25.618;2024-01-11T02:27:00;12.18;;;5.93;;
74415;SDS011;62850;42.428;25.618;2024-01-11T02:29:27;14.13;;;6.43;;
74415;SDS011;62850;42.428;25.618;2024-01-11T02:31:54;14.07;;;6.70;;
74415;SDS011;62850;42.428;25.618;2024-01-11T02:34:20;14.73;;;6.60;;
74415;SDS011;62850;42.428;25.618;2024-01-11T02:36:48;15.00;;;6.55;;
74415;SDS011;62850;42.428;25.618;2024-01-11T02:39:15;18.83;;;8.07;;
74415;SDS011;62850;42.428;25.618;2024-01-11T02:41:43;15.75;;;6.53;;
74415;SDS011;62850;42.428;25.618;2024-01-11T02:44:09;15.30;;;7.57;;
74415;SDS011;62850;42.428;25.618;2024-01-11T02:46:34;16.63;;;7.57;;
74415;SDS011;62850;42.428;25.618;2024-01-11T02:49:00;15.13;;;6.60;;
74415;SDS011;62850;42.428;25.618;2024-01-11T02:51:26;19.25;;;7.05;;
74415;SDS011;62850;42.428;25.618;2024-01-11T02:53:51;12.68;;;5.82;;
74415;SDS011;62850;42.428;25.618;2024-01-11T02:56:17;12.82;;;5.70;;
74415;SDS011;62850;42.428;25.618;2024-01-11T02:58:43;14.35;;;6.40;;
74415;SDS011;62850;42.428;25.618;2024-01-11T03:01:09;15.55;;;5.88;;
74415;SDS011;62850;42.428;25.618;2024-01-11T03:03:35;12.57;;;6.13;;
74415;SDS011;62850;42.428;25.618;2024-01-11T03:06:01;16.17;;;6.40;;
74415;SDS011;62850;42.428;25.618;2024-01-11T03:08:28;19.77;;;7.35;;
74415;SDS011;62850;42.428;25.618;2024-01-11T03:10:54;21.25;;;9.25;;
74415;SDS011;62850;42.428;25.618;2024-01-11T03:13:20;21.00;;;8.48;;
74415;SDS011;62850;42.428;25.618;2024-01-11T03:15:45;22.35;;;9.13;;
74415;SDS011;62850;42.428;25.618;2024-01-11T03:18:11;22.75;;;9.65;;
74415;SDS011;62850;42.428;25.618;2024-01-11T03:20:37;19.48;;;7.72;;
74415;SDS011;62850;42.428;25.618;2024-01-11T03:23:03;15.45;;;7.10;;
74415;SDS011;62850;42.428;25.618;2024-01-11T03:25:29;19.27;;;8.25;;
74415;SDS011;62850;42.428;25.618;2024-01-11T03:27:57;16.52;;;7.68;;
74415;SDS011;62850;42.428;25.618;2024-01-11T03:30:23;16.33;;;7.70;;
74415;SDS011;62850;42.428;25.618;2024-01-11T03:32:50;15.95;;;7.10;;
74415;SDS011;62850;42.428;25.618;2024-01-11T03:35:17;12.15;;;6.38;;
74415;SDS011;62850;42.428;25.618;2024-01-11T03:37:44;12.18;;;6.28;;
74415;SDS011;62850;42.428;25.618;2024-01-11T03:40:10;15.02;;;6.40;;
74415;SDS011;62850;42.428;25.618;2024-01-11T03:42:36;15.65;;;6.13;;
74415;SDS011;62850;42.428;25.618;2024-01-11T03:45:02;16.80;;;5.93;;
74415;SDS011;62850;42.428;25.618;2024-01-11T03:47:29;12.10;;;5.90;;
74415;SDS011;62850;42.428;25.618;2024-01-11T03:49:55;13.70;;;6.45;;
74415;SDS011;62850;42.428;25.618;2024-01-11T03:52:21;13.63;;;6.00;;
74415;SDS011;62850;42.428;25.618;2024-01-11T03:54:47;16.50;;;6.90;;
74415;SDS011;62850;42.428;25.618;2024-01-11T03:57:13;15.07;;;7.22;;
74415;SDS011;62850;42.428;25.618;2024-01-11T03:59:40;15.32;;;7.05;;
74415;SDS011;62850;42.428;25.618;2024-01-11T04:02:06;12.30;;;5.90;;
74415;SDS011;62850;42.428;25.618;2024-01-11T04:04:33;12.23;;;6.03;;
74415;SDS011;62850;42.428;25.618;2024-01-11T04:06:59;13.23;;;6.90;;
74415;SDS011;62850;42.428;25.618;2024-01-11T04:09:24;14.27;;;6.32;;
74415;SDS011;62850;42.428;25.618;2024-01-11T04:11:50;13.18;;;6.38;;
74415;SDS011;62850;42.428;25.618;2024-01-11T04:14:17;14.63;;;5.68;;
74415;SDS011;62850;42.428;25.618;2024-01-11T04:16:43;14.77;;;7.00;;
74415;SDS011;62850;42.428;25.618;2024-01-11T04:19:09;11.68;;;6.15;;
74415;SDS011;62850;42.428;25.618;2024-01-11T04:21:35;14.07;;;5.90;;
74415;SDS011;62850;42.428;25.618;2024-01-11T04:24:02;12.75;;;5.38;;
74415;SDS011;62850;42.428;25.618;2024-01-11T04:26:29;14.90;;;6.53;;
74415;SDS011;62850;42.428;25.618;2024-01-11T04:28:55;14.25;;;5.72;;
74415;SDS011;62850;42.428;25.618;2024-01-11T04:31:23;11.30;;;5.43;;
74415;SDS011;62850;42.428;25.618;2024-01-11T04:33:49;13.70;;;5.53;;
74415;SDS011;62850;42.428;25.618;2024-01-11T04:36:15;15.25;;;6.13;;
74415;SDS011;62850;42.428;25.618;2024-01-11T04:38:41;14.60;;;6.53;;
74415;SDS011;62850;42.428;25.618;2024-01-11T04:41:08;15.48;;;6.55;;
74415;SDS011;62850;42.428;25.618;2024-01-11T04:43:37;16.15;;;7.07;;
74415;SDS011;62850;42.428;25.618;2024-01-11T04:46:12;16.17;;;6.55;;
74415;SDS011;62850;42.428;25.618;2024-01-11T04:48:41;13.27;;;6.40;;
74415;SDS011;62850;42.428;25.618;2024-01-11T04:51:07;12.50;;;5.38;;
74415;SDS011;62850;42.428;25.618;2024-01-11T04:53:35;14.80;;;5.88;;
74415;SDS011;62850;42.428;25.618;2024-01-11T04:56:08;8.48;;;4.25;;
74415;SDS011;62850;42.428;25.618;2024-01-11T04:58:36;11.48;;;4.60;;
74415;SDS011;62850;42.428;25.618;2024-01-11T05:01:03;8.50;;;3.83;;
74415;SDS011;62850;42.428;25.618;2024-01-11T05:03:30;8.45;;;3.75;;
74415;SDS011;62850;42.428;25.618;2024-01-11T05:05:57;8.52;;;3.75;;
74415;SDS011;62850;42.428;25.618;2024-01-11T05:08:23;10.32;;;3.70;;
74415;SDS011;62850;42.428;25.618;2024-01-11T05:10:49;9.95;;;5.03;;
74415;SDS011;62850;42.428;25.618;2024-01-11T05:13:15;8.95;;;3.58;;
74415;SDS011;62850;42.428;25.618;2024-01-11T05:15:41;8.45;;;3.80;;
74415;SDS011;62850;42.428;25.618;2024-01-11T05:18:07;6.90;;;3.38;;
74415;SDS011;62850;42.428;25.618;2024-01-11T05:20:33;9.02;;;3.35;;
74415;SDS011;62850;42.428;25.618;2024-01-11T05:22:59;8.27;;;3.70;;
74415;SDS011;62850;42.428;25.618;2024-01-11T05:25:25;7.97;;;3.58;;
74415;SDS011;62850;42.428;25.618;2024-01-11T05:27:52;9.82;;;4.15;;
74415;SDS011;62850;42.428;25.618;2024-01-11T05:30:18;10.35;;;3.53;;
74415;SDS011;62850;42.428;25.618;2024-01-11T05:32:43;11.02;;;4.05;;
74415;SDS011;62850;42.428;25.618;2024-01-11T05:35:09;7.90;;;4.65;;
74415;SDS011;62850;42.428;25.618;2024-01-11T05:37:35;12.77;;;4.85;;
74415;SDS011;62850;42.428;25.618;2024-01-11T05:40:02;10.63;;;4.13;;
74415;SDS011;62850;42.428;25.618;2024-01-11T05:42:28;9.93;;;4.53;;
74415;SDS011;62850;42.428;25.618;2024-01-11T05:44:54;10.93;;;4.47;;
74415;SDS011;62850;42.428;25.618;2024-01-11T05:47:20;12.25;;;4.85;;
74415;SDS011;62850;42.428;25.618;2024-01-11T05:49:46;13.98;;;5.18;;
74415;SDS011;62850;42.428;25.618;2024-01-11T05:52:13;13.15;;;5.25;;
74415;SDS011;62850;42.428;25.618;2024-01-11T05:54:38;8.63;;;4.63;;
74415;SDS011;62850;42.428;25.618;2024-01-11T05:57:04;13.88;;;5.68;;
74415;SDS011;62850;42.428;25.618;2024-01-11T05:59:30;11.88;;;4.60;;
74415;SDS011;62850;42.428;25.618;2024-01-11T06:01:56;10.68;;;5.38;;
74415;SDS011;62850;42.428;25.618;2024-01-11T06:04:25;12.75;;;5.65;;
74415;SDS011;62850;42.428;25.618;2024-01-11T06:06:51;16.67;;;6.50;;
74415;SDS011;62850;42.428;25.618;2024-01-11T06:09:17;28.25;;;11.10;;
74415;SDS011;62850;42.428;25.618;2024-01-11T06:11:43;23.05;;;13.20;;
74415;SDS011;62850;42.428;25.618;2024-01-11T06:14:09;21.38;;;12.48;;
74415;SDS011;62850;42.428;25.618;2024-01-11T06:16:35;17.70;;;9.73;;
74415;SDS011;62850;42.428;25.618;2024-01-11T06:19:01;17.38;;;8.82;;
74415;SDS011;62850;42.428;25.618;2024-01-11T06:21:27;14.27;;;8.65;;
74415;SDS011;62850;42.428;25.618;2024-01-11T06:23:53;18.60;;;9.13;;
74415;SDS011;62850;42.428;25.618;2024-01-11T06:26:19;38.10;;;19.60;;
74415;SDS011;62850;42.428;25.618;2024-01-11T06:28:45;38.60;;;20.38;;
74415;SDS011;62850;42.428;25.618;2024-01-11T06:31:11;45.10;;;22.88;;
74415;SDS011;62850;42.428;25.618;2024-01-11T06:33:37;37.20;;;19.55;;
74415;SDS011;62850;42.428;25.618;2024-01-11T06:36:04;30.17;;;15.02;;
74415;SDS011;62850;42.428;25.618;2024-01-11T06:38:35;25.23;;;14.60;;
74415;SDS011;62850;42.428;25.618;2024-01-11T06:41:01;27.38;;;14.00;;
74415;SDS011;62850;42.428;25.618;2024-01-11T06:43:27;21.15;;;9.52;;
74415;SDS011;62850;42.428;25.618;2024-01-11T06:45:53;19.77;;;9.57;;
74415;SDS011;62850;42.428;25.618;2024-01-11T06:48:18;19.83;;;9.65;;
74415;SDS011;62850;42.428;25.618;2024-01-11T06:50:44;24.20;;;11.43;;
74415;SDS011;62850;42.428;25.618;2024-01-11T06:53:10;26.92;;;12.07;;
74415;SDS011;62850;42.428;25.618;2024-01-11T06:55:36;24.73;;;12.60;;
74415;SDS011;62850;42.428;25.618;2024-01-11T06:58:03;29.95;;;13.40;;
74415;SDS011;62850;42.428;25.618;2024-01-11T07:00:31;25.85;;;12.75;;
74415;SDS011;62850;42.428;25.618;2024-01-11T07:02:57;27.48;;;13.90;;
74415;SDS011;62850;42.428;25.618;2024-01-11T07:05:23;30.08;;;12.90;;
74415;SDS011;62850;42.428;25.618;2024-01-11T07:07:48;32.50;;;14.82;;
74415;SDS011;62850;42.428;25.618;2024-01-11T07:10:14;36.45;;;16.42;;
74415;SDS011;62850;42.428;25.618;2024-01-11T07:12:41;31.88;;;15.35;;
74415;SDS011;62850;42.428;25.618;2024-01-11T07:15:08;45.70;;;17.10;;
74415;SDS011;62850;42.428;25.618;2024-01-11T07:17:34;39.65;;;17.60;;
74415;SDS011;62850;42.428;25.618;2024-01-11T07:20:00;39.15;;;16.27;;
74415;SDS011;62850;42.428;25.618;2024-01-11T07:22:28;31.00;;;16.23;;
74415;SDS011;62850;42.428;25.618;2024-01-11T07:24:54;33.97;;;16.33;;
74415;SDS011;62850;42.428;25.618;2024-01-11T07:27:20;37.15;;;16.55;;
74415;SDS011;62850;42.428;25.618;2024-01-11T07:29:46;33.65;;;13.43;;
74415;SDS011;62850;42.428;25.618;2024-01-11T07:32:11;22.92;;;10.10;;
74415;SDS011;62850;42.428;25.618;2024-01-11T07:34:37;28.30;;;11.00;;
74415;SDS011;62850;42.428;25.618;2024-01-11T07:37:03;19.15;;;9.82;;
74415;SDS011;62850;42.428;25.618;2024-01-11T07:39:29;19.95;;;10.32;;
74415;SDS011;62850;42.428;25.618;2024-01-11T07:41:56;23.20;;;9.77;;
74415;SDS011;62850;42.428;25.618;2024-01-11T07:44:21;26.75;;;9.40;;
74415;SDS011;62850;42.428;25.618;2024-01-11T07:46:47;22.23;;;10.18;;
74415;SDS011;62850;42.428;25.618;2024-01-11T07:49:13;24.02;;;10.23;;
74415;SDS011;62850;42.428;25.618;2024-01-11T07:51:39;22.15;;;10.90;;
74415;SDS011;62850;42.428;25.618;2024-01-11T07:54:05;20.20;;;9.75;;
74415;SDS011;62850;42.428;25.618;2024-01-11T07:56:31;20.05;;;9.20;;
74415;SDS011;62850;42.428;25.618;2024-01-11T07:58:56;18.67;;;9.32;;
74415;SDS011;62850;42.428;25.618;2024-01-11T08:01:22;24.00;;;10.63;;
74415;SDS011;62850;42.428;25.618;2024-01-11T08:03:47;23.98;;;9.65;;
74415;SDS011;62850;42.428;25.618;2024-01-11T08:06:17;26.02;;;9.70;;
74415;SDS011;62850;42.428;25.618;2024-01-11T08:08:42;19.05;;;9.20;;
74415;SDS011;62850;42.428;25.618;2024-01-11T08:11:09;27.27;;;11.18;;
74415;SDS011;62850;42.428;25.618;2024-01-11T08:13:35;20.52;;;10.35;;
74415;SDS011;62850;42.428;25.618;2024-01-11T08:16:02;20.77;;;9.25;;
74415;SDS011;62850;42.428;25.618;2024-01-11T08:18:30;27.25;;;11.80;;
74415;SDS011;62850;42.428;25.618;2024-01-11T08:20:57;30.27;;;12.32;;
74415;SDS011;62850;42.428;25.618;2024-01-11T08:23:22;30.17;;;11.27;;
74415;SDS011;62850;42.428;25.618;2024-01-11T08:25:48;27.17;;;11.95;;
74415;SDS011;62850;42.428;25.618;2024-01-11T08:28:14;26.98;;;13.35;;
74415;SDS011;62850;42.428;25.618;2024-01-11T08:30:40;34.78;;;12.23;;
74415;SDS011;62850;42.428;25.618;2024-01-11T08:33:07;26.67;;;11.93;;
74415;SDS011;62850;42.428;25.618;2024-01-11T08:35:33;29.38;;;14.15;;
74415;SDS011;62850;42.428;25.618;2024-01-11T08:37:59;37.10;;;16.58;;
74415;SDS011;62850;42.428;25.618;2024-01-11T08:40:25;31.63;;;13.85;;
74415;SDS011;62850;42.428;25.618;2024-01-11T08:42:51;31.02;;;12.77;;
74415;SDS011;62850;42.428;25.618;2024-01-11T08:45:17;33.83;;;13.73;;
74415;SDS011;62850;42.428;25.618;2024-01-11T08:47:44;37.65;;;17.40;;
74415;SDS011;62850;42.428;25.618;2024-01-11T08:50:14;37.20;;;18.02;;
74415;SDS011;62850;42.428;25.618;2024-01-11T08:52:40;40.97;;;18.27;;
74415;SDS011;62850;42.428;25.618;2024-01-11T08:55:07;36.63;;;15.27;;
74415;SDS011;62850;42.428;25.618;2024-01-11T08:57:33;36.22;;;13.80;;
74415;SDS011;62850;42.428;25.618;2024-01-11T09:00:01;33.53;;;14.05;;
74415;SDS011;62850;42.428;25.618;2024-01-11T09:02:27;30.67;;;13.60;;
74415;SDS011;62850;42.428;25.618;2024-01-11T09:04:53;23.65;;;10.95;;
74415;SDS011;62850;42.428;25.618;2024-01-11T09:07:19;19.67;;;10.77;;
74415;SDS011;62850;42.428;25.618;2024-01-11T09:09:45;20.48;;;10.68;;
74415;SDS011;62850;42.428;25.618;2024-01-11T09:12:10;23.13;;;10.32;;
74415;SDS011;62850;42.428;25.618;2024-01-11T09:14:36;17.85;;;8.40;;
74415;SDS011;62850;42.428;25.618;2024-01-11T09:17:04;17.05;;;8.23;;
74415;SDS011;62850;42.428;25.618;2024-01-11T09:19:31;18.02;;;8.40;;
74415;SDS011;62850;42.428;25.618;2024-01-11T09:21:59;18.65;;;8.15;;
74415;SDS011;62850;42.428;25.618;2024-01-11T09:24:25;22.33;;;10.13;;
74415;SDS011;62850;42.428;25.618;2024-01-11T09:26:51;19.27;;;8.00;;
74415;SDS011;62850;42.428;25.618;2024-01-11T09:29:16;16.92;;;8.30;;
74415;SDS011;62850;42.428;25.618;2024-01-11T09:31:42;18.42;;;8.75;;
74415;SDS011;62850;42.428;25.618;2024-01-11T09:34:08;15.00;;;7.50;;
74415;SDS011;62850;42.428;25.618;2024-01-11T09:36:34;14.57;;;7.50;;
74415;SDS011;62850;42.428;25.618;2024-01-11T09:39:00;21.50;;;9.27;;
74415;SDS011;62850;42.428;25.618;2024-01-11T09:41:26;18.08;;;8.60;;
74415;SDS011;62850;42.428;25.618;2024-01-11T09:43:53;19.50;;;8.30;;
74415;SDS011;62850;42.428;25.618;2024-01-11T09:46:22;18.75;;;9.18;;
74415;SDS011;62850;42.428;25.618;2024-01-11T09:48:49;16.20;;;8.98;;
74415;SDS011;62850;42.428;25.618;2024-01-11T09:51:15;19.50;;;10.15;;
74415;SDS011;62850;42.428;25.618;2024-01-11T09:53:41;22.92;;;8.82;;
74415;SDS011;62850;42.428;25.618;2024-01-11T09:56:08;17.58;;;9.02;;
74415;SDS011;62850;42.428;25.618;2024-01-11T09:58:35;19.20;;;8.85;;
74415;SDS011;62850;42.428;25.618;2024-01-11T10:01:02;23.88;;;8.90;;
74415;SDS011;62850;42.428;25.618;2024-01-11T10:03:30;22.42;;;10.48;;
74415;SDS011;62850;42.428;25.618;2024-01-11T10:05:57;24.05;;;10.43;;
74415;SDS011;62850;42.428;25.618;2024-01-11T10:08:23;25.13;;;9.73;;
74415;SDS011;62850;42.428;25.618;2024-01-11T10:10:50;19.23;;;9.35;;
74415;SDS011;62850;42.428;25.618;2024-01-11T10:13:17;31.58;;;11.18;;
74415;SDS011;62850;42.428;25.618;2024-01-11T10:15:43;22.35;;;9.63;;
74415;SDS011;62850;42.428;25.618;2024-01-11T10:18:10;30.00;;;9.73;;
74415;SDS011;62850;42.428;25.618;2024-01-11T10:20:37;24.65;;;9.35;;
74415;SDS011;62850;42.428;25.618;2024-01-11T10:23:03;26.25;;;9.82;;
74415;SDS011;62850;42.428;25.618;2024-01-11T10:25:29;18.17;;;8.93;;
74415;SDS011;62850;42.428;25.618;2024-01-11T10:27:55;20.95;;;9.05;;
74415;SDS011;62850;42.428;25.618;2024-01-11T10:30:21;20.08;;;9.35;;
74415;SDS011;62850;42.428;25.618;2024-01-11T10:32:48;15.07;;;8.05;;
74415;SDS011;62850;42.428;25.618;2024-01-11T10:35:14;17.20;;;8.35;;
74415;SDS011;62850;42.428;25.618;2024-01-11T10:37:43;18.63;;;8.02;;
74415;SDS011;62850;42.428;25.618;2024-01-11T10:40:09;13.82;;;7.85;;
74415;SDS011;62850;42.428;25.618;2024-01-11T10:42:45;16.65;;;7.63;;
74415;SDS011;62850;42.428;25.618;2024-01-11T10:45:17;18.67;;;8.32;;
74415;SDS011;62850;42.428;25.618;2024-01-11T10:50:26;14.27;;;8.05;;
74415;SDS011;62850;42.428;25.618;2024-01-11T10:53:08;16.85;;;7.07;;
74415;SDS011;62850;42.428;25.618;2024-01-11T10:55:38;18.40;;;6.80;;
74415;SDS011;62850;42.428;25.618;2024-01-11T10:58:05;17.77;;;8.13;;
74415;SDS011;62850;42.428;25.618;2024-01-11T11:00:32;19.00;;;8.07;;
74415;SDS011;62850;42.428;25.618;2024-01-11T11:03:01;20.98;;;8.77;;
74415;SDS011;62850;42.428;25.618;2024-01-11T11:05:31;16.10;;;8.30;;
74415;SDS011;62850;42.428;25.618;2024-01-11T11:07:57;17.63;;;7.97;;
74415;SDS011;62850;42.428;25.618;2024-01-11T11:10:25;19.05;;;7.88;;
74415;SDS011;62850;42.428;25.618;2024-01-11T11:12:53;19.65;;;7.72;;
74415;SDS011;62850;42.428;25.618;2024-01-11T11:15:20;16.45;;;7.78;;
74415;SDS011;62850;42.428;25.618;2024-01-11T11:17:48;16.92;;;8.02;;
74415;SDS011;62850;42.428;25.618;2024-01-11T11:20:15;16.02;;;7.30;;
74415;SDS011;62850;42.428;25.618;2024-01-11T11:22:41;17.60;;;7.75;;
74415;SDS011;62850;42.428;25.618;2024-01-11T11:27:35;14.95;;;7.80;;
74415;SDS011;62850;42.428;25.618;2024-01-11T11:30:03;17.73;;;7.68;;
74415;SDS011;62850;42.428;25.618;2024-01-11T11:32:38;15.02;;;7.03;;
74415;SDS011;62850;42.428;25.618;2024-01-11T11:35:08;18.20;;;7.97;;
74415;SDS011;62850;42.428;25.618;2024-01-11T11:37:38;16.70;;;8.18;;
74415;SDS011;62850;42.428;25.618;2024-01-11T11:40:13;16.95;;;7.75;;
74415;SDS011;62850;42.428;25.618;2024-01-11T11:42:39;19.73;;;8.13;;
74415;SDS011;62850;42.428;25.618;2024-01-11T11:45:05;20.58;;;8.25;;
74415;SDS011;62850;42.428;25.618;2024-01-11T11:47:35;16.02;;;8.38;;
74415;SDS011;62850;42.428;25.618;2024-01-11T11:50:04;19.02;;;8.65;;
74415;SDS011;62850;42.428;25.618;2024-01-11T11:52:32;18.27;;;9.20;;
74415;SDS011;62850;42.428;25.618;2024-01-11T11:55:00;21.27;;;9.52;;
74415;SDS011;62850;42.428;25.618;2024-01-11T11:57:27;22.13;;;9.38;;
74415;SDS011;62850;42.428;25.618;2024-01-11T11:59:56;20.27;;;9.80;;
74415;SDS011;62850;42.428;25.618;2024-01-11T12:02:24;22.73;;;9.73;;
74415;SDS011;62850;42.428;25.618;2024-01-11T12:04:52;21.02;;;8.60;;
74415;SDS011;62850;42.428;25.618;2024-01-11T12:07:18;17.92;;;8.98;;
74415;SDS011;62850;42.428;25.618;2024-01-11T12:09:46;21.25;;;8.77;;
74415;SDS011;62850;42.428;25.618;2024-01-11T12:12:13;16.77;;;9.10;;
74415;SDS011;62850;42.428;25.618;2024-01-11T12:14:38;18.77;;;9.27;;
74415;SDS011;62850;42.428;25.618;2024-01-11T12:17:06;20.58;;;9.70;;
74415;SDS011;62850;42.428;25.618;2024-01-11T12:19:32;21.73;;;10.50;;
74415;SDS011;62850;42.428;25.618;2024-01-11T12:21:59;18.73;;;9.43;;
74415;SDS011;62850;42.428;25.618;2024-01-11T12:24:25;25.92;;;11.82;;
74415;SDS011;62850;42.428;25.618;2024-01-11T12:26:52;24.48;;;12.25;;
74415;SDS011;62850;42.428;25.618;2024-01-11T12:29:19;18.85;;;10.80;;
74415;SDS011;62850;42.428;25.618;2024-01-11T12:31:46;24.52;;;10.48;;
74415;SDS011;62850;42.428;25.618;2024-01-11T12:34:12;28.38;;;12.55;;
74415;SDS011;62850;42.428;25.618;2024-01-11T12:36:39;23.65;;;11.38;;
74415;SDS011;62850;42.428;25.618;2024-01-11T12:39:07;23.67;;;11.82;;
74415;SDS011;62850;42.428;25.618;2024-01-11T12:41:34;19.50;;;9.95;;
74415;SDS011;62850;42.428;25.618;2024-01-11T12:44:01;20.52;;;9.88;;
74415;SDS011;62850;42.428;25.618;2024-01-11T12:46:27;18.50;;;9.02;;
74415;SDS011;62850;42.428;25.618;2024-01-11T12:48:53;20.90;;;9.77;;
74415;SDS011;62850;42.428;25.618;2024-01-11T12:51:20;17.33;;;8.30;;
74415;SDS011;62850;42.428;25.618;2024-01-11T12:53:46;21.92;;;8.52;;
74415;SDS011;62850;42.428;25.618;2024-01-11T12:56:17;18.85;;;9.88;;
74415;SDS011;62850;42.428;25.618;2024-01-11T12:58:44;21.83;;;10.05;;
74415;SDS011;62850;42.428;25.618;2024-01-11T13:01:12;33.10;;;13.50;;
74415;SDS011;62850;42.428;25.618;2024-01-11T13:03:39;23.58;;;9.57;;
74415;SDS011;62850;42.428;25.618;2024-01-11T13:06:09;60.63;;;19.23;;
74415;SDS011;62850;42.428;25.618;2024-01-11T13:08:37;42.63;;;17.48;;
74415;SDS011;62850;42.428;25.618;2024-01-11T13:11:05;28.20;;;12.38;;
74415;SDS011;62850;42.428;25.618;2024-01-11T13:13:33;25.05;;;10.70;;
74415;SDS011;62850;42.428;25.618;2024-01-11T13:15:59;18.73;;;9.07;;
74415;SDS011;62850;42.428;25.618;2024-01-11T13:18:27;21.05;;;8.13;;
74415;SDS011;62850;42.428;25.618;2024-01-11T13:20:52;14.60;;;7.93;;
74415;SDS011;62850;42.428;25.618;2024-01-11T13:23:19;17.67;;;6.78;;
74415;SDS011;62850;42.428;25.618;2024-01-11T13:25:46;17.08;;;7.75;;
74415;SDS011;62850;42.428;25.618;2024-01-11T13:28:14;18.58;;;8.27;;
74415;SDS011;62850;42.428;25.618;2024-01-11T13:30:41;13.30;;;7.13;;
74415;SDS011;62850;42.428;25.618;2024-01-11T13:33:10;11.25;;;5.03;;
74415;SDS011;62850;42.428;25.618;2024-01-11T13:35:37;12.88;;;4.32;;
74415;SDS011;62850;42.428;25.618;2024-01-11T13:38:03;9.20;;;4.35;;
74415;SDS011;62850;42.428;25.618;2024-01-11T13:40:29;8.73;;;3.85;;
74415;SDS011;62850;42.428;25.618;2024-01-11T13:42:56;8.45;;;4.25;;
74415;SDS011;62850;42.428;25.618;2024-01-11T13:45:23;7.78;;;3.42;;
74415;SDS011;62850;42.428;25.618;2024-01-11T13:47:49;8.43;;;3.58;;
74415;SDS011;62850;42.428;25.618;2024-01-11T13:50:15;9.32;;;3.90;;
74415;SDS011;62850;42.428;25.618;2024-01-11T13:52:42;11.45;;;4.47;;
74415;SDS011;62850;42.428;25.618;2024-01-11T13:55:10;7.07;;;3.92;;
74415;SDS011;62850;42.428;25.618;2024-01-11T13:57:37;7.63;;;4.25;;
74415;SDS011;62850;42.428;25.618;2024-01-11T14:00:03;11.68;;;4.07;;
74415;SDS011;62850;42.428;25.618;2024-01-11T14:02:30;8.30;;;4.07;;
74415;SDS011;62850;42.428;25.618;2024-01-11T14:04:57;7.30;;;3.80;;
74415;SDS011;62850;42.428;25.618;2024-01-11T14:07:23;9.48;;;3.50;;
74415;SDS011;62850;42.428;25.618;2024-01-11T14:09:49;8.75;;;3.67;;
74415;SDS011;62850;42.428;25.618;2024-01-11T14:12:15;7.50;;;3.50;;
74415;SDS011;62850;42.428;25.618;2024-01-11T14:14:41;13.68;;;4.82;;
74415;SDS011;62850;42.428;25.618;2024-01-11T14:17:08;11.40;;;4.47;;
74415;SDS011;62850;42.428;25.618;2024-01-11T14:19:35;6.43;;;3.47;;
74415;SDS011;62850;42.428;25.618;2024-01-11T14:22:00;13.57;;;3.95;;